WMT542 LROP-LIPH
Flight info
| Callsign | WMT542 |
|---|---|
| Flight time | 1h 38m |
| Altitude | 36000 |
| Route | LROP/08L N0444F360 POLU1K POLUN DCT LELTI DCT ANASA DCT SOMUN DCT OKSIG DCT NAKIT DCT LABIN/N0357F180 L614 CHI N503 INBUT INBU1A LIPH/07 |
| Aircraft | A321/M-SDE3FGHIRWY/LB1 |
Departure
| Time | 2026-04-24 08:02 |
|---|---|
| Airport | Bucharest Henri Coandă International Airport (LROP) |
Arrival
| Time | 2026-04-24 09:41 |
|---|---|
| Airport | Treviso Airport (LIPH) |
| Time | Latitude | Longitude | Altitude | Speed | Heading |
|---|---|---|---|---|---|
| 2026-04-24 07:27 | 44.56912 | 26.09201 | 309 ft | 0 kts | 174° |
| 2026-04-24 07:56 | 44.56909 | 26.09202 | 321 ft | 1 kts | 175° |
| 2026-04-24 07:56 | 44.56894 | 26.09204 | 321 ft | 3 kts | 174° |
| 2026-04-24 07:56 | 44.56887 | 26.09205 | 319 ft | 2 kts | 174° |
| 2026-04-24 07:56 | 44.56871 | 26.09200 | 321 ft | 3 kts | 206° |
| 2026-04-24 07:57 | 44.56858 | 26.09176 | 320 ft | 4 kts | 241° |
| 2026-04-24 07:57 | 44.56851 | 26.09130 | 321 ft | 6 kts | 263° |
| 2026-04-24 07:57 | 44.56845 | 26.09066 | 320 ft | 8 kts | 263° |
| 2026-04-24 07:57 | 44.56837 | 26.08982 | 320 ft | 10 kts | 262° |
| 2026-04-24 07:58 | 44.56830 | 26.08879 | 320 ft | 12 kts | 266° |
| 2026-04-24 07:58 | 44.56823 | 26.08768 | 320 ft | 9 kts | 264° |
| 2026-04-24 07:58 | 44.56816 | 26.08670 | 320 ft | 11 kts | 266° |
| 2026-04-24 07:58 | 44.56833 | 26.08579 | 320 ft | 9 kts | 310° |
| 2026-04-24 07:59 | 44.56895 | 26.08552 | 320 ft | 10 kts | 353° |
| 2026-04-24 07:59 | 44.56973 | 26.08541 | 320 ft | 12 kts | 354° |
| 2026-04-24 07:59 | 44.57063 | 26.08529 | 320 ft | 14 kts | 354° |
| 2026-04-24 07:59 | 44.57164 | 26.08515 | 320 ft | 15 kts | 354° |
| 2026-04-24 08:00 | 44.57276 | 26.08498 | 320 ft | 17 kts | 353° |
| 2026-04-24 08:00 | 44.57397 | 26.08479 | 319 ft | 18 kts | 354° |
| 2026-04-24 08:00 | 44.57505 | 26.08464 | 321 ft | 16 kts | 356° |
| 2026-04-24 08:00 | 44.57604 | 26.08451 | 322 ft | 11 kts | 355° |
| 2026-04-24 08:01 | 44.57665 | 26.08502 | 323 ft | 11 kts | 64° |
| 2026-04-24 08:01 | 44.57676 | 26.08595 | 323 ft | 6 kts | 83° |
| 2026-04-24 08:01 | 44.57677 | 26.08605 | 323 ft | 0 kts | 83° |
| 2026-04-24 08:01 | 44.57678 | 26.08616 | 323 ft | 6 kts | 82° |
| 2026-04-24 08:02 | 44.57708 | 26.08996 | 320 ft | 76 kts | 83° |
| 2026-04-24 08:02 | 44.57787 | 26.10042 | 323 ft | 137 kts | 84° |
| 2026-04-24 08:02 | 44.57910 | 26.11599 | 362 ft | 179 kts | 84° |
| 2026-04-24 08:02 | 44.58013 | 26.13247 | 1246 ft | 157 kts | 86° |
| 2026-04-24 08:03 | 44.58081 | 26.14811 | 1819 ft | 168 kts | 86° |
| 2026-04-24 08:03 | 44.58135 | 26.16464 | 2316 ft | 174 kts | 86° |
| 2026-04-24 08:03 | 44.58172 | 26.18186 | 2846 ft | 175 kts | 86° |
| 2026-04-24 08:03 | 44.58005 | 26.19896 | 3330 ft | 184 kts | 113° |
| 2026-04-24 08:04 | 44.57128 | 26.21197 | 3843 ft | 191 kts | 154° |
| 2026-04-24 08:04 | 44.55842 | 26.21471 | 4369 ft | 191 kts | 193° |
| 2026-04-24 08:04 | 44.54683 | 26.20571 | 4811 ft | 198 kts | 230° |
| 2026-04-24 08:04 | 44.54020 | 26.18792 | 5173 ft | 214 kts | 248° |
| 2026-04-24 08:05 | 44.53420 | 26.16802 | 5562 ft | 231 kts | 248° |
| 2026-04-24 08:05 | 44.52758 | 26.14630 | 5965 ft | 253 kts | 248° |
| 2026-04-24 08:05 | 44.52046 | 26.12313 | 6499 ft | 263 kts | 248° |
| 2026-04-24 08:05 | 44.51311 | 26.09936 | 7177 ft | 268 kts | 249° |
| 2026-04-24 08:06 | 44.50562 | 26.07519 | 7866 ft | 272 kts | 249° |
| 2026-04-24 08:06 | 44.49799 | 26.05066 | 8560 ft | 277 kts | 249° |
| 2026-04-24 08:06 | 44.49023 | 26.02572 | 9249 ft | 282 kts | 250° |
| 2026-04-24 08:06 | 44.48235 | 26.00037 | 9922 ft | 287 kts | 250° |
| 2026-04-24 08:07 | 44.47423 | 25.97415 | 10275 ft | 304 kts | 250° |
| 2026-04-24 08:07 | 44.46555 | 25.94602 | 10404 ft | 326 kts | 250° |
| 2026-04-24 08:07 | 44.45630 | 25.91616 | 10732 ft | 340 kts | 250° |
| 2026-04-24 08:07 | 44.44676 | 25.88564 | 11320 ft | 345 kts | 250° |
| 2026-04-24 08:08 | 44.43712 | 25.85476 | 11959 ft | 348 kts | 250° |
| 2026-04-24 08:08 | 44.42738 | 25.82357 | 12598 ft | 351 kts | 250° |
| 2026-04-24 08:08 | 44.41754 | 25.79210 | 13243 ft | 355 kts | 250° |
| 2026-04-24 08:09 | 44.39757 | 25.72829 | 14402 ft | 362 kts | 251° |
| 2026-04-24 08:09 | 44.38740 | 25.69587 | 14947 ft | 366 kts | 250° |
| 2026-04-24 08:09 | 44.37709 | 25.66313 | 15492 ft | 370 kts | 250° |
| 2026-04-24 08:09 | 44.36664 | 25.62998 | 16035 ft | 374 kts | 250° |
| 2026-04-24 08:10 | 44.35655 | 25.59797 | 16555 ft | 378 kts | 250° |
| 2026-04-24 08:10 | 44.34589 | 25.56422 | 17096 ft | 382 kts | 250° |
| 2026-04-24 08:10 | 44.33507 | 25.53005 | 17642 ft | 386 kts | 250° |
| 2026-04-24 08:10 | 44.32414 | 25.49555 | 18175 ft | 390 kts | 250° |
| 2026-04-24 08:11 | 44.31308 | 25.46074 | 18641 ft | 394 kts | 250° |
| 2026-04-24 08:11 | 44.30192 | 25.42566 | 19119 ft | 397 kts | 250° |
| 2026-04-24 08:11 | 44.29068 | 25.39025 | 19587 ft | 401 kts | 250° |
| 2026-04-24 08:11 | 44.27932 | 25.35450 | 20079 ft | 404 kts | 250° |
| 2026-04-24 08:12 | 44.26787 | 25.31853 | 20561 ft | 407 kts | 250° |
| 2026-04-24 08:12 | 44.25631 | 25.28231 | 21035 ft | 411 kts | 250° |
| 2026-04-24 08:12 | 44.24604 | 25.24520 | 21496 ft | 410 kts | 258° |
| 2026-04-24 08:12 | 44.24033 | 25.20628 | 21958 ft | 408 kts | 268° |
| 2026-04-24 08:13 | 44.23952 | 25.16743 | 22400 ft | 405 kts | 278° |
| 2026-04-24 08:13 | 44.24119 | 25.12803 | 22845 ft | 408 kts | 278° |
| 2026-04-24 08:13 | 44.24282 | 25.08839 | 23275 ft | 411 kts | 278° |
| 2026-04-24 08:13 | 44.24438 | 25.04848 | 23680 ft | 414 kts | 278° |
| 2026-04-24 08:14 | 44.24591 | 25.00815 | 24037 ft | 417 kts | 278° |
| 2026-04-24 08:14 | 44.24739 | 24.96761 | 24388 ft | 420 kts | 277° |
| 2026-04-24 08:14 | 44.24886 | 24.92681 | 24739 ft | 423 kts | 277° |
| 2026-04-24 08:14 | 44.25032 | 24.88572 | 25084 ft | 426 kts | 277° |
| 2026-04-24 08:15 | 44.25179 | 24.84434 | 25425 ft | 429 kts | 278° |
| 2026-04-24 08:15 | 44.25330 | 24.80264 | 25765 ft | 431 kts | 278° |
| 2026-04-24 08:15 | 44.25482 | 24.76080 | 26097 ft | 434 kts | 278° |
| 2026-04-24 08:15 | 44.25635 | 24.71855 | 26426 ft | 437 kts | 278° |
| 2026-04-24 08:16 | 44.25785 | 24.67607 | 26753 ft | 440 kts | 278° |
| 2026-04-24 08:16 | 44.25933 | 24.63337 | 27082 ft | 442 kts | 278° |
| 2026-04-24 08:16 | 44.26081 | 24.59038 | 27404 ft | 445 kts | 278° |
| 2026-04-24 08:16 | 44.26227 | 24.54709 | 27724 ft | 448 kts | 278° |
| 2026-04-24 08:17 | 44.26373 | 24.50351 | 28042 ft | 451 kts | 278° |
| 2026-04-24 08:17 | 44.26515 | 24.45979 | 28357 ft | 453 kts | 278° |
| 2026-04-24 08:17 | 44.26656 | 24.41575 | 28657 ft | 456 kts | 277° |
| 2026-04-24 08:17 | 44.26798 | 24.37137 | 28954 ft | 458 kts | 277° |
| 2026-04-24 08:18 | 44.26940 | 24.32678 | 29254 ft | 461 kts | 277° |
| 2026-04-24 08:18 | 44.27083 | 24.28199 | 29538 ft | 464 kts | 277° |
| 2026-04-24 08:18 | 44.27228 | 24.23692 | 29832 ft | 466 kts | 277° |
| 2026-04-24 08:18 | 44.27370 | 24.19160 | 30106 ft | 469 kts | 277° |
| 2026-04-24 08:19 | 44.27508 | 24.14609 | 30363 ft | 471 kts | 277° |
| 2026-04-24 08:19 | 44.27643 | 24.10033 | 30625 ft | 473 kts | 277° |
| 2026-04-24 08:19 | 44.27777 | 24.05439 | 30987 ft | 473 kts | 277° |
| 2026-04-24 08:19 | 44.27911 | 24.00869 | 31349 ft | 472 kts | 277° |
| 2026-04-24 08:20 | 44.28042 | 23.96290 | 31695 ft | 472 kts | 277° |
| 2026-04-24 08:20 | 44.28170 | 23.91716 | 32042 ft | 472 kts | 277° |
| 2026-04-24 08:20 | 44.28297 | 23.87148 | 32380 ft | 471 kts | 277° |
| 2026-04-24 08:20 | 44.28423 | 23.82575 | 32718 ft | 471 kts | 277° |
| 2026-04-24 08:21 | 44.28547 | 23.78004 | 33051 ft | 471 kts | 277° |
| 2026-04-24 08:21 | 44.28668 | 23.73440 | 33389 ft | 471 kts | 278° |
| 2026-04-24 08:21 | 44.28788 | 23.68880 | 33728 ft | 470 kts | 278° |
| 2026-04-24 08:21 | 44.28906 | 23.64318 | 34045 ft | 470 kts | 278° |
| 2026-04-24 08:22 | 44.29021 | 23.59820 | 34328 ft | 470 kts | 277° |
| 2026-04-24 08:22 | 44.29136 | 23.55212 | 34621 ft | 469 kts | 277° |
| 2026-04-24 08:22 | 44.29248 | 23.50731 | 34901 ft | 468 kts | 277° |
| 2026-04-24 08:22 | 44.29362 | 23.46140 | 35190 ft | 467 kts | 277° |
| 2026-04-24 08:23 | 44.29474 | 23.41625 | 35476 ft | 466 kts | 277° |
| 2026-04-24 08:23 | 44.29582 | 23.37108 | 35754 ft | 465 kts | 277° |
| 2026-04-24 08:23 | 44.29684 | 23.32589 | 35946 ft | 465 kts | 276° |
| 2026-04-24 08:24 | 44.29882 | 23.23591 | 35984 ft | 463 kts | 276° |
| 2026-04-24 08:24 | 44.30079 | 23.14651 | 35992 ft | 463 kts | 276° |
| 2026-04-24 08:25 | 44.30269 | 23.05597 | 35997 ft | 464 kts | 276° |
| 2026-04-24 08:25 | 44.30452 | 22.96601 | 35992 ft | 464 kts | 276° |
| 2026-04-24 08:26 | 44.30628 | 22.87656 | 35995 ft | 464 kts | 276° |
| 2026-04-24 08:26 | 44.30796 | 22.78639 | 35991 ft | 465 kts | 276° |
| 2026-04-24 08:27 | 44.30963 | 22.69614 | 35996 ft | 465 kts | 276° |
| 2026-04-24 08:27 | 44.31113 | 22.60581 | 36000 ft | 465 kts | 276° |
| 2026-04-24 08:28 | 44.31569 | 22.51601 | 36002 ft | 461 kts | 283° |
| 2026-04-24 08:28 | 44.32437 | 22.42726 | 36009 ft | 462 kts | 283° |
| 2026-04-24 08:29 | 44.33157 | 22.35342 | 36014 ft | 462 kts | 283° |
| 2026-04-24 08:29 | 44.34153 | 22.24996 | 36024 ft | 462 kts | 282° |
| 2026-04-24 08:30 | 44.34991 | 22.16095 | 36029 ft | 463 kts | 282° |
| 2026-04-24 08:30 | 44.35682 | 22.08683 | 36031 ft | 463 kts | 282° |
| 2026-04-24 08:31 | 44.36518 | 21.99758 | 36040 ft | 463 kts | 282° |
| 2026-04-24 08:31 | 44.37347 | 21.90832 | 36048 ft | 463 kts | 282° |
| 2026-04-24 08:32 | 44.38166 | 21.81890 | 36059 ft | 464 kts | 282° |
| 2026-04-24 08:32 | 44.38981 | 21.72936 | 36062 ft | 464 kts | 282° |
| 2026-04-24 08:33 | 44.39782 | 21.63974 | 36066 ft | 465 kts | 282° |
| 2026-04-24 08:33 | 44.40579 | 21.55006 | 36071 ft | 465 kts | 282° |
| 2026-04-24 08:34 | 44.41380 | 21.46033 | 36075 ft | 465 kts | 282° |
| 2026-04-24 08:34 | 44.42175 | 21.37045 | 36072 ft | 465 kts | 282° |
| 2026-04-24 08:35 | 44.42947 | 21.28108 | 36078 ft | 466 kts | 282° |
| 2026-04-24 08:35 | 44.43710 | 21.19110 | 36079 ft | 466 kts | 282° |
| 2026-04-24 08:36 | 44.44481 | 21.10109 | 36079 ft | 466 kts | 282° |
| 2026-04-24 08:36 | 44.45253 | 21.01091 | 36079 ft | 466 kts | 281° |
| 2026-04-24 08:37 | 44.46009 | 20.92074 | 36083 ft | 466 kts | 281° |
| 2026-04-24 08:37 | 44.46752 | 20.83051 | 36077 ft | 466 kts | 281° |
| 2026-04-24 08:38 | 44.47489 | 20.74029 | 36085 ft | 466 kts | 281° |
| 2026-04-24 08:38 | 44.48220 | 20.65009 | 36081 ft | 466 kts | 281° |
| 2026-04-24 08:39 | 44.48943 | 20.55981 | 36088 ft | 466 kts | 281° |
| 2026-04-24 08:39 | 44.49654 | 20.47019 | 36099 ft | 466 kts | 281° |
| 2026-04-24 08:40 | 44.50372 | 20.37995 | 36091 ft | 466 kts | 281° |
| 2026-04-24 08:40 | 44.51079 | 20.28962 | 36088 ft | 466 kts | 281° |
| 2026-04-24 08:41 | 44.51776 | 20.19926 | 36098 ft | 466 kts | 281° |
| 2026-04-24 08:41 | 44.52464 | 20.10894 | 36106 ft | 466 kts | 281° |
| 2026-04-24 08:42 | 44.53151 | 20.01847 | 36109 ft | 467 kts | 281° |
| 2026-04-24 08:42 | 44.53829 | 19.92797 | 36110 ft | 467 kts | 280° |
| 2026-04-24 08:43 | 44.54496 | 19.83738 | 36114 ft | 467 kts | 280° |
| 2026-04-24 08:43 | 44.55150 | 19.74716 | 36118 ft | 468 kts | 280° |
| 2026-04-24 08:44 | 44.55807 | 19.65642 | 36125 ft | 468 kts | 280° |
| 2026-04-24 08:44 | 44.56463 | 19.56560 | 36130 ft | 468 kts | 280° |
| 2026-04-24 08:45 | 44.57103 | 19.47475 | 36130 ft | 468 kts | 280° |
| 2026-04-24 08:45 | 44.57730 | 19.38395 | 36130 ft | 468 kts | 280° |
| 2026-04-24 08:46 | 44.58360 | 19.29314 | 36130 ft | 468 kts | 280° |
| 2026-04-24 08:46 | 44.58986 | 19.20229 | 36127 ft | 468 kts | 279° |
| 2026-04-24 08:47 | 44.59600 | 19.11145 | 36137 ft | 468 kts | 280° |
| 2026-04-24 08:47 | 44.60475 | 19.02132 | 36140 ft | 465 kts | 284° |
| 2026-04-24 08:48 | 44.61665 | 18.93273 | 36140 ft | 465 kts | 285° |
| 2026-04-24 08:48 | 44.62875 | 18.84360 | 36143 ft | 465 kts | 284° |
| 2026-04-24 08:49 | 44.63975 | 18.75402 | 36144 ft | 466 kts | 284° |
| 2026-04-24 08:49 | 44.65026 | 18.66425 | 36144 ft | 466 kts | 284° |
| 2026-04-24 08:50 | 44.66086 | 18.57439 | 36143 ft | 466 kts | 284° |
| 2026-04-24 08:50 | 44.67161 | 18.48457 | 36147 ft | 466 kts | 284° |
| 2026-04-24 08:51 | 44.68224 | 18.39480 | 36152 ft | 466 kts | 284° |
| 2026-04-24 08:51 | 44.69276 | 18.30488 | 36151 ft | 466 kts | 284° |
| 2026-04-24 08:52 | 44.70318 | 18.21499 | 36150 ft | 466 kts | 283° |
| 2026-04-24 08:52 | 44.71358 | 18.12507 | 36155 ft | 466 kts | 283° |
| 2026-04-24 08:53 | 44.72394 | 18.03505 | 36158 ft | 466 kts | 283° |
| 2026-04-24 08:53 | 44.73422 | 17.94499 | 36169 ft | 466 kts | 283° |
| 2026-04-24 08:54 | 44.74435 | 17.85485 | 36168 ft | 466 kts | 283° |
| 2026-04-24 08:54 | 44.75449 | 17.76475 | 36173 ft | 466 kts | 283° |
| 2026-04-24 08:55 | 44.76454 | 17.67466 | 36166 ft | 466 kts | 283° |
| 2026-04-24 08:55 | 44.77453 | 17.58436 | 36173 ft | 466 kts | 283° |
| 2026-04-24 08:56 | 44.78448 | 17.49412 | 36167 ft | 466 kts | 283° |
| 2026-04-24 08:56 | 44.79428 | 17.40378 | 36173 ft | 467 kts | 283° |
| 2026-04-24 08:57 | 44.80398 | 17.31338 | 36175 ft | 467 kts | 283° |
| 2026-04-24 08:57 | 44.81366 | 17.22303 | 36172 ft | 467 kts | 283° |
| 2026-04-24 08:58 | 44.82330 | 17.13261 | 36174 ft | 467 kts | 283° |
| 2026-04-24 08:58 | 44.83286 | 17.04222 | 36174 ft | 467 kts | 283° |
| 2026-04-24 08:59 | 44.84245 | 16.95232 | 36176 ft | 467 kts | 283° |
| 2026-04-24 08:59 | 44.85276 | 16.86207 | 36178 ft | 466 kts | 284° |
| 2026-04-24 09:00 | 44.86326 | 16.77173 | 36178 ft | 467 kts | 284° |
| 2026-04-24 09:00 | 44.87353 | 16.68139 | 36181 ft | 467 kts | 283° |
| 2026-04-24 09:01 | 44.88362 | 16.59087 | 36180 ft | 467 kts | 283° |
| 2026-04-24 09:01 | 44.89363 | 16.50023 | 36181 ft | 468 kts | 283° |
| 2026-04-24 09:02 | 44.90356 | 16.40949 | 36181 ft | 468 kts | 283° |
| 2026-04-24 09:02 | 44.91346 | 16.31877 | 36179 ft | 468 kts | 283° |
| 2026-04-24 09:03 | 44.92332 | 16.22809 | 36174 ft | 468 kts | 283° |
| 2026-04-24 09:03 | 44.93308 | 16.13717 | 36177 ft | 468 kts | 283° |
| 2026-04-24 09:04 | 44.94270 | 16.04621 | 36176 ft | 468 kts | 283° |
| 2026-04-24 09:04 | 44.95235 | 15.95523 | 36182 ft | 468 kts | 283° |
| 2026-04-24 09:05 | 44.96196 | 15.86436 | 36182 ft | 468 kts | 283° |
| 2026-04-24 09:05 | 44.97144 | 15.77329 | 36178 ft | 468 kts | 283° |
| 2026-04-24 09:06 | 44.98077 | 15.68289 | 36167 ft | 468 kts | 283° |
| 2026-04-24 09:06 | 44.99007 | 15.59194 | 36168 ft | 468 kts | 283° |
| 2026-04-24 09:07 | 44.99935 | 15.50081 | 36160 ft | 468 kts | 283° |
| 2026-04-24 09:07 | 45.01310 | 15.36418 | 36158 ft | 468 kts | 283° |
| 2026-04-24 09:08 | 45.02217 | 15.27325 | 36152 ft | 467 kts | 283° |
| 2026-04-24 09:08 | 45.03117 | 15.18220 | 36154 ft | 468 kts | 283° |
| 2026-04-24 09:09 | 45.04007 | 15.09116 | 36151 ft | 467 kts | 283° |
| 2026-04-24 09:09 | 45.04888 | 15.00002 | 36148 ft | 468 kts | 282° |
| 2026-04-24 09:10 | 45.05761 | 14.90879 | 36151 ft | 468 kts | 283° |
| 2026-04-24 09:10 | 45.06636 | 14.81761 | 36147 ft | 468 kts | 282° |
| 2026-04-24 09:11 | 45.07503 | 14.72637 | 36156 ft | 468 kts | 282° |
| 2026-04-24 09:11 | 45.08359 | 14.63504 | 36153 ft | 468 kts | 282° |
| 2026-04-24 09:12 | 45.09203 | 14.54363 | 36151 ft | 468 kts | 282° |
| 2026-04-24 09:12 | 45.10047 | 14.45224 | 36156 ft | 468 kts | 282° |
| 2026-04-24 09:13 | 45.10882 | 14.36150 | 36153 ft | 468 kts | 282° |
| 2026-04-24 09:13 | 45.11708 | 14.26996 | 36154 ft | 468 kts | 282° |
| 2026-04-24 09:14 | 45.12524 | 14.17855 | 36154 ft | 468 kts | 282° |
| 2026-04-24 09:14 | 45.13340 | 14.08700 | 36153 ft | 468 kts | 282° |
| 2026-04-24 09:15 | 45.14148 | 13.99553 | 36154 ft | 468 kts | 282° |
| 2026-04-24 09:15 | 45.14942 | 13.90403 | 36151 ft | 468 kts | 281° |
| 2026-04-24 09:16 | 45.15729 | 13.81247 | 36156 ft | 468 kts | 281° |
| 2026-04-24 09:16 | 45.16382 | 13.73645 | 36156 ft | 468 kts | 281° |
| 2026-04-24 09:17 | 45.17156 | 13.64484 | 36157 ft | 468 kts | 281° |
| 2026-04-24 09:17 | 45.17911 | 13.55319 | 36160 ft | 468 kts | 279° |
| 2026-04-24 09:18 | 45.17934 | 13.50688 | 36158 ft | 474 kts | 268° |
| 2026-04-24 09:18 | 45.17385 | 13.46065 | 36159 ft | 478 kts | 257° |
| 2026-04-24 09:18 | 45.14649 | 13.37452 | 35754 ft | 486 kts | 236° |
| 2026-04-24 09:19 | 45.12576 | 13.33670 | 35211 ft | 486 kts | 232° |
| 2026-04-24 09:19 | 45.10451 | 13.29955 | 34677 ft | 485 kts | 231° |
| 2026-04-24 09:19 | 45.08328 | 13.26246 | 34142 ft | 484 kts | 231° |
| 2026-04-24 09:19 | 45.06213 | 13.22548 | 33558 ft | 483 kts | 231° |
| 2026-04-24 09:20 | 45.04129 | 13.18899 | 32975 ft | 482 kts | 231° |
| 2026-04-24 09:20 | 45.01582 | 13.13722 | 32204 ft | 478 kts | 244° |
| 2026-04-24 09:20 | 45.00681 | 13.10904 | 31844 ft | 474 kts | 252° |
| 2026-04-24 09:20 | 44.99813 | 13.06444 | 31314 ft | 468 kts | 263° |
| 2026-04-24 09:21 | 44.99548 | 13.01907 | 30818 ft | 460 kts | 274° |
| 2026-04-24 09:21 | 44.99846 | 12.97455 | 30328 ft | 452 kts | 282° |
| 2026-04-24 09:21 | 45.00326 | 12.93084 | 29765 ft | 449 kts | 282° |
| 2026-04-24 09:21 | 45.00795 | 12.88740 | 29208 ft | 445 kts | 282° |
| 2026-04-24 09:22 | 45.01252 | 12.84425 | 28664 ft | 442 kts | 282° |
| 2026-04-24 09:22 | 45.01701 | 12.80139 | 28120 ft | 439 kts | 282° |
| 2026-04-24 09:22 | 45.02145 | 12.75893 | 27593 ft | 435 kts | 282° |
| 2026-04-24 09:22 | 45.02589 | 12.71672 | 27073 ft | 432 kts | 282° |
| 2026-04-24 09:23 | 45.03033 | 12.67484 | 26563 ft | 429 kts | 282° |
| 2026-04-24 09:23 | 45.03473 | 12.63326 | 26057 ft | 426 kts | 282° |
| 2026-04-24 09:23 | 45.03910 | 12.59205 | 25567 ft | 423 kts | 282° |
| 2026-04-24 09:23 | 45.04342 | 12.55104 | 25084 ft | 421 kts | 281° |
| 2026-04-24 09:24 | 45.04766 | 12.51021 | 24606 ft | 418 kts | 281° |
| 2026-04-24 09:24 | 45.05185 | 12.46953 | 24141 ft | 416 kts | 281° |
| 2026-04-24 09:24 | 45.05597 | 12.42910 | 23667 ft | 415 kts | 281° |
| 2026-04-24 09:24 | 45.06006 | 12.38885 | 23123 ft | 413 kts | 281° |
| 2026-04-24 09:25 | 45.06425 | 12.34860 | 22579 ft | 411 kts | 283° |
| 2026-04-24 09:25 | 45.07222 | 12.31025 | 22109 ft | 403 kts | 297° |
| 2026-04-24 09:25 | 45.08574 | 12.27609 | 21690 ft | 394 kts | 309° |
| 2026-04-24 09:25 | 45.10377 | 12.24755 | 21262 ft | 385 kts | 322° |
| 2026-04-24 09:26 | 45.12479 | 12.22451 | 20755 ft | 381 kts | 327° |
| 2026-04-24 09:26 | 45.14607 | 12.20217 | 20258 ft | 380 kts | 327° |
| 2026-04-24 09:26 | 45.16725 | 12.17979 | 19774 ft | 379 kts | 327° |
| 2026-04-24 09:26 | 45.18827 | 12.15743 | 19293 ft | 377 kts | 326° |
| 2026-04-24 09:27 | 45.20920 | 12.13507 | 18822 ft | 376 kts | 326° |
| 2026-04-24 09:27 | 45.22981 | 12.11306 | 18347 ft | 374 kts | 326° |
| 2026-04-24 09:27 | 45.25083 | 12.09063 | 17802 ft | 372 kts | 326° |
| 2026-04-24 09:27 | 45.27115 | 12.06895 | 17288 ft | 370 kts | 326° |
| 2026-04-24 09:28 | 45.29198 | 12.04673 | 16765 ft | 368 kts | 326° |
| 2026-04-24 09:28 | 45.31238 | 12.02506 | 16257 ft | 366 kts | 326° |
| 2026-04-24 09:28 | 45.33244 | 12.00376 | 15762 ft | 363 kts | 326° |
| 2026-04-24 09:28 | 45.35260 | 11.98235 | 15317 ft | 360 kts | 326° |
| 2026-04-24 09:29 | 45.37253 | 11.96111 | 14871 ft | 356 kts | 326° |
| 2026-04-24 09:29 | 45.39219 | 11.94015 | 14503 ft | 350 kts | 326° |
| 2026-04-24 09:29 | 45.41153 | 11.91948 | 14075 ft | 346 kts | 325° |
| 2026-04-24 09:29 | 45.43051 | 11.89912 | 13557 ft | 336 kts | 325° |
| 2026-04-24 09:30 | 45.44911 | 11.87913 | 13025 ft | 325 kts | 325° |
| 2026-04-24 09:30 | 45.47256 | 11.85393 | 12388 ft | 312 kts | 324° |
| 2026-04-24 09:30 | 45.48405 | 11.84196 | 12104 ft | 305 kts | 329° |
| 2026-04-24 09:30 | 45.50322 | 11.83087 | 11674 ft | 294 kts | 351° |
| 2026-04-24 09:31 | 45.52342 | 11.83066 | 11253 ft | 291 kts | 11° |
| 2026-04-24 09:31 | 45.54218 | 11.84094 | 10820 ft | 291 kts | 31° |
| 2026-04-24 09:31 | 45.55707 | 11.86052 | 10489 ft | 295 kts | 52° |
| 2026-04-24 09:31 | 45.56641 | 11.88661 | 10157 ft | 298 kts | 66° |
| 2026-04-24 09:32 | 45.57376 | 11.91407 | 9750 ft | 294 kts | 67° |
| 2026-04-24 09:32 | 45.58090 | 11.94106 | 9226 ft | 289 kts | 67° |
| 2026-04-24 09:32 | 45.58835 | 11.96752 | 8650 ft | 285 kts | 62° |
| 2026-04-24 09:32 | 45.60005 | 11.98969 | 8063 ft | 278 kts | 36° |
| 2026-04-24 09:33 | 45.61712 | 12.00163 | 7442 ft | 274 kts | 8° |
| 2026-04-24 09:33 | 45.63580 | 12.00091 | 6834 ft | 270 kts | 343° |
| 2026-04-24 09:33 | 45.65337 | 11.99186 | 6207 ft | 268 kts | 327° |
| 2026-04-24 09:33 | 45.66741 | 11.97463 | 5573 ft | 266 kts | 312° |
| 2026-04-24 09:34 | 45.67817 | 11.95361 | 5142 ft | 258 kts | 296° |
| 2026-04-24 09:34 | 45.68326 | 11.92966 | 4759 ft | 249 kts | 274° |
| 2026-04-24 09:34 | 45.68144 | 11.90537 | 4264 ft | 246 kts | 250° |
| 2026-04-24 09:34 | 45.67290 | 11.88463 | 3892 ft | 237 kts | 225° |
| 2026-04-24 09:35 | 45.66007 | 11.87118 | 3802 ft | 224 kts | 205° |
| 2026-04-24 09:35 | 45.64545 | 11.86562 | 3649 ft | 213 kts | 183° |
| 2026-04-24 09:35 | 45.63116 | 11.86768 | 3520 ft | 204 kts | 163° |
| 2026-04-24 09:35 | 45.61859 | 11.87630 | 3275 ft | 199 kts | 143° |
| 2026-04-24 09:36 | 45.60900 | 11.88998 | 3054 ft | 192 kts | 124° |
| 2026-04-24 09:36 | 45.60229 | 11.90595 | 2891 ft | 183 kts | 119° |
| 2026-04-24 09:36 | 45.59607 | 11.92116 | 2762 ft | 175 kts | 120° |
| 2026-04-24 09:36 | 45.59041 | 11.93630 | 2734 ft | 169 kts | 110° |
| 2026-04-24 09:37 | 45.58784 | 11.95218 | 2625 ft | 165 kts | 94° |
| 2026-04-24 09:37 | 45.58903 | 11.96830 | 2539 ft | 165 kts | 72° |
| 2026-04-24 09:37 | 45.59272 | 11.98387 | 2495 ft | 162 kts | 70° |
| 2026-04-24 09:37 | 45.59661 | 11.99913 | 2504 ft | 164 kts | 69° |
| 2026-04-24 09:38 | 45.60065 | 12.01448 | 2436 ft | 166 kts | 69° |
| 2026-04-24 09:38 | 45.60472 | 12.02982 | 2265 ft | 164 kts | 69° |
| 2026-04-24 09:38 | 45.60878 | 12.04502 | 2069 ft | 163 kts | 69° |
| 2026-04-24 09:38 | 45.61282 | 12.06016 | 1857 ft | 164 kts | 69° |
| 2026-04-24 09:39 | 45.61678 | 12.07501 | 1654 ft | 161 kts | 69° |
| 2026-04-24 09:39 | 45.62070 | 12.08967 | 1424 ft | 154 kts | 69° |
| 2026-04-24 09:39 | 45.62447 | 12.10384 | 1216 ft | 148 kts | 69° |
| 2026-04-24 09:39 | 45.62813 | 12.11753 | 1020 ft | 146 kts | 70° |
| 2026-04-24 09:40 | 45.63169 | 12.13089 | 829 ft | 146 kts | 69° |
| 2026-04-24 09:40 | 45.63525 | 12.14427 | 643 ft | 143 kts | 70° |
| 2026-04-24 09:40 | 45.63878 | 12.15758 | 424 ft | 142 kts | 71° |
| 2026-04-24 09:40 | 45.64240 | 12.17076 | 222 ft | 142 kts | 70° |
| 2026-04-24 09:41 | 45.64584 | 12.18387 | 70 ft | 135 kts | 70° |
| 2026-04-24 09:41 | 45.64842 | 12.19377 | 65 ft | 66 kts | 69° |
| 2026-04-24 09:41 | 45.64942 | 12.19753 | 61 ft | 35 kts | 69° |
| 2026-04-24 09:41 | 45.65012 | 12.20010 | 59 ft | 21 kts | 69° |
| 2026-04-24 09:42 | 45.65074 | 12.20165 | 61 ft | 16 kts | 41° |
| 2026-04-24 09:42 | 45.65161 | 12.20238 | 63 ft | 14 kts | 26° |
| 2026-04-24 09:42 | 45.65242 | 12.20294 | 59 ft | 12 kts | 26° |
| 2026-04-24 09:42 | 45.65298 | 12.20366 | 60 ft | 10 kts | 61° |
| 2026-04-24 09:43 | 45.65323 | 12.20457 | 60 ft | 9 kts | 70° |
| 2026-04-24 09:43 | 45.65343 | 12.20536 | 57 ft | 7 kts | 69° |
| 2026-04-24 09:43 | 45.65357 | 12.20552 | 60 ft | 2 kts | 26° |
| 2026-04-24 09:43 | 45.65367 | 12.20555 | 59 ft | 1 kts | 5° |
| 2026-04-24 09:44 | 45.65381 | 12.20552 | 62 ft | 2 kts | 349° |
| 2026-04-24 09:44 | 45.65397 | 12.20545 | 59 ft | 3 kts | 340° |
| 2026-04-24 09:44 | 45.65405 | 12.20541 | 56 ft | 0 kts | 340° |
| 2026-04-24 10:22 | 45.65383 | 12.20553 | 53 ft | 4 kts | 333° |
| 2026-04-24 10:22 | 45.65391 | 12.20547 | 62 ft | 4 kts | 336° |
| 2026-04-24 10:23 | 45.65367 | 12.20564 | 55 ft | 4 kts | 320° |
| 2026-04-24 10:23 | 45.65357 | 12.20583 | 56 ft | 2 kts | 249° |
| 2026-04-24 10:23 | 45.65359 | 12.20591 | 55 ft | 0 kts | 248° |